Marchand, Pennsylvania
Current Conditions -  °F | °C
As of 1:15 PM on Friday 19 Dec 2014 (Local Time) from KIDI Reporting Station
Overcast Overcast  
Wind Chill: 20°   Ceiling: 2200
Heat Index: 30°   Visibility: 10mi
Dew Point: 23°   Wind: 14mph
Humidity: 75%   Direction: 320°NW
Pressure: 30.18"   Gusts: NA
Location:  40.86°N, 79.02°W
Report Text: KIDI 191815Z AUTO 32012KT 10SM OVC022 M01/M05 A3018 RMK A01
Loading
Personal Weather Stations






























Interactive Weather Map New forecast layout! Learn more

10-Day Weather Forecast

Advertisements
Track Severe Weather on mobile